createdAt,value
2019-01-03T00:00:52.980Z,2.20
2019-01-03T00:01:52.958Z,3.30
2019-01-03T00:02:52.901Z,2.00
2019-01-03T00:03:52.902Z,2.80
2019-01-03T00:04:52.886Z,2.20
2019-01-03T00:05:52.869Z,4.40
2019-01-03T00:06:52.918Z,4.60
2019-01-03T00:07:52.848Z,5.00
2019-01-03T00:08:52.862Z,2.50
2019-01-03T00:09:52.825Z,3.60
2019-01-03T00:10:52.842Z,1.80
2019-01-03T00:11:52.832Z,3.20
2019-01-03T00:12:52.798Z,2.00
2019-01-03T00:13:52.822Z,1.70
2019-01-03T00:14:52.772Z,2.90
2019-01-03T00:15:52.765Z,1.50
2019-01-03T00:16:52.761Z,2.20
2019-01-03T00:17:52.748Z,3.70
2019-01-03T00:18:52.758Z,2.40
2019-01-03T00:19:52.719Z,3.50
2019-01-03T00:20:52.709Z,2.80
2019-01-03T00:21:52.701Z,3.50
2019-01-03T00:22:52.686Z,3.60
2019-01-03T00:23:52.729Z,6.30
2019-01-03T00:24:52.662Z,3.60
2019-01-03T00:25:52.652Z,3.90
2019-01-03T00:26:53.764Z,1.80
2019-01-03T00:27:52.633Z,2.10
2019-01-03T00:28:52.656Z,4.20
2019-01-03T00:29:52.608Z,2.10
2019-01-03T00:30:52.642Z,5.00
2019-01-03T00:31:52.611Z,3.70
2019-01-03T00:32:52.579Z,4.50
2019-01-03T00:33:52.565Z,2.00
2019-01-03T00:34:52.576Z,1.70
2019-01-03T00:35:52.544Z,2.70
2019-01-03T00:36:52.561Z,3.10
2019-01-03T00:37:52.527Z,4.40
2019-01-03T00:38:52.512Z,5.50
2019-01-03T00:39:52.500Z,4.20
2019-01-03T00:40:52.507Z,5.90
2019-01-03T00:41:52.505Z,3.30
2019-01-03T00:42:52.472Z,4.40
2019-01-03T00:43:52.630Z,2.40
2019-01-03T00:44:52.489Z,3.80
2019-01-03T00:45:52.455Z,2.50
2019-01-03T00:46:52.425Z,4.70
2019-01-03T00:47:52.458Z,3.80
2019-01-03T00:48:52.402Z,3.70
2019-01-03T00:49:52.395Z,2.90
2019-01-03T00:50:52.399Z,2.60
2019-01-03T00:51:52.404Z,2.90
2019-01-03T00:52:52.387Z,2.40
2019-01-03T00:53:52.348Z,5.70
2019-01-03T00:54:52.338Z,3.20
2019-01-03T00:55:52.343Z,4.40
2019-01-03T00:56:52.315Z,3.70
2019-01-03T00:57:52.332Z,2.40
2019-01-03T00:58:52.329Z,4.40
2019-01-03T00:59:52.305Z,5.00
2019-01-03T01:00:52.274Z,3.50
2019-01-03T01:01:52.304Z,4.70
2019-01-03T01:02:52.254Z,3.30
2019-01-03T01:03:52.245Z,5.30
2019-01-03T01:04:52.255Z,5.00
2019-01-03T01:05:52.245Z,3.60
2019-01-03T01:06:52.210Z,2.50
2019-01-03T01:07:52.215Z,3.50
2019-01-03T01:08:52.187Z,4.30
2019-01-03T01:09:52.201Z,4.40
2019-01-03T01:10:52.166Z,3.40
2019-01-03T01:11:52.161Z,3.40
2019-01-03T01:12:52.147Z,3.20
2019-01-03T01:13:52.185Z,3.70
2019-01-03T01:14:52.152Z,5.90
2019-01-03T01:15:52.112Z,5.30
2019-01-03T01:16:52.101Z,3.80
2019-01-03T01:17:52.136Z,4.70
2019-01-03T01:18:52.109Z,5.00
2019-01-03T01:19:52.068Z,4.40
2019-01-03T01:20:52.070Z,3.20
2019-01-03T01:21:52.050Z,2.90
2019-01-03T01:22:52.044Z,4.90
2019-01-03T01:23:52.053Z,2.80
2019-01-03T01:24:52.055Z,3.00
2019-01-03T01:25:52.004Z,2.20
2019-01-03T01:26:52.001Z,4.40
2019-01-03T01:27:51.982Z,3.30
2019-01-03T01:28:52.018Z,2.90
2019-01-03T01:29:51.992Z,2.30
2019-01-03T01:30:51.950Z,3.50
2019-01-03T01:31:51.943Z,4.60
2019-01-03T01:32:51.930Z,2.50
2019-01-03T01:33:51.922Z,3.30
2019-01-03T01:34:51.938Z,3.60
2019-01-03T01:35:51.923Z,4.00
2019-01-03T01:36:51.909Z,4.80
2019-01-03T01:37:51.875Z,2.90
2019-01-03T01:38:51.862Z,4.50
2019-01-03T01:39:51.873Z,2.30
2019-01-03T01:40:51.846Z,4.40
2019-01-03T01:41:51.837Z,2.70
2019-01-03T01:42:51.845Z,4.20
2019-01-03T01:43:51.812Z,2.40
2019-01-03T01:44:51.799Z,1.40
2019-01-03T01:45:51.787Z,4.10
2019-01-03T01:46:51.780Z,4.90
2019-01-03T01:47:51.826Z,1.80
2019-01-03T01:48:51.756Z,4.90
2019-01-03T01:49:51.746Z,2.90
2019-01-03T01:50:51.735Z,4.40
2019-01-03T01:51:51.724Z,3.10
2019-01-03T01:52:51.740Z,3.30
2019-01-03T01:53:51.705Z,3.00
2019-01-03T01:54:51.696Z,2.90
2019-01-03T01:55:51.745Z,4.10
2019-01-03T01:56:51.677Z,2.20
2019-01-03T01:57:51.660Z,3.60
2019-01-03T01:58:51.652Z,5.30
2019-01-03T01:59:51.706Z,3.20
2019-01-03T02:00:51.673Z,2.20
2019-01-03T02:01:51.619Z,2.60
2019-01-03T02:02:51.621Z,1.90
2019-01-03T02:03:51.661Z,2.20
2019-01-03T02:04:51.593Z,3.70
2019-01-03T02:05:51.597Z,2.80
2019-01-03T02:06:51.571Z,1.70
2019-01-03T02:07:51.626Z,2.50
2019-01-03T02:08:51.552Z,4.80
2019-01-03T02:09:51.567Z,3.50
2019-01-03T02:10:51.591Z,3.60
2019-01-03T02:11:51.520Z,2.60
2019-01-03T02:12:51.550Z,4.50
2019-01-03T02:13:51.519Z,2.30
2019-01-03T02:14:51.479Z,3.60
2019-01-03T02:15:51.477Z,1.80
2019-01-03T02:16:51.524Z,1.90
2019-01-03T02:17:51.462Z,2.60
2019-01-03T02:18:51.434Z,2.20
2019-01-03T02:19:51.425Z,3.40
2019-01-03T02:20:51.419Z,4.50
2019-01-03T02:21:51.451Z,2.40
2019-01-03T02:22:51.395Z,4.20
2019-01-03T02:23:51.414Z,3.40
2019-01-03T02:24:51.365Z,3.60
2019-01-03T02:25:51.356Z,2.70
2019-01-03T02:26:51.375Z,2.50
2019-01-03T02:27:51.342Z,3.40
2019-01-03T02:28:51.326Z,2.60
2019-01-03T02:29:51.317Z,2.40
2019-01-03T02:30:51.300Z,3.20
2019-01-03T02:31:51.322Z,4.70
2019-01-03T02:32:51.282Z,3.30
2019-01-03T02:33:51.279Z,2.40
2019-01-03T02:34:51.264Z,2.20
2019-01-03T02:35:51.259Z,4.80
2019-01-03T02:36:51.265Z,3.50
2019-01-03T02:37:51.229Z,4.00
2019-01-03T02:38:51.221Z,3.40
2019-01-03T02:39:51.248Z,4.10
2019-01-03T02:40:51.192Z,1.90
2019-01-03T02:41:51.187Z,4.10
2019-01-03T02:42:51.178Z,2.70
2019-01-03T02:43:51.176Z,2.90
2019-01-03T02:44:51.190Z,3.80
2019-01-03T02:45:51.153Z,4.40
2019-01-03T02:46:51.153Z,3.60
2019-01-03T02:47:51.138Z,3.40
2019-01-03T02:48:51.107Z,3.10
2019-01-03T02:49:51.134Z,3.20
2019-01-03T02:50:51.085Z,1.60
2019-01-03T02:51:51.129Z,1.70
2019-01-03T02:52:51.066Z,2.90
2019-01-03T02:53:51.068Z,1.40
2019-01-03T02:54:51.054Z,3.90
2019-01-03T02:55:51.066Z,2.90
2019-01-03T02:56:51.038Z,2.30
2019-01-03T02:57:51.009Z,3.20
2019-01-03T02:58:51.003Z,3.10
2019-01-03T02:59:50.995Z,2.20
2019-01-03T03:00:51.015Z,2.80
2019-01-03T03:01:51.006Z,2.20
2019-01-03T03:02:50.969Z,4.30
2019-01-03T03:03:50.956Z,1.90
2019-01-03T03:04:50.946Z,5.80
2019-01-03T03:05:50.957Z,2.50
2019-01-03T03:06:50.926Z,4.80
2019-01-03T03:07:50.932Z,2.40
2019-01-03T03:08:50.895Z,2.00
2019-01-03T03:09:50.888Z,2.50
2019-01-03T03:10:50.898Z,1.90
2019-01-03T03:11:50.893Z,2.30
2019-01-03T03:12:50.859Z,4.10
2019-01-03T03:13:50.838Z,4.10
2019-01-03T03:14:50.863Z,3.20
2019-01-03T03:15:50.813Z,2.90
2019-01-03T03:16:50.803Z,3.30
2019-01-03T03:17:50.813Z,2.30
2019-01-03T03:18:50.783Z,2.30
2019-01-03T03:19:50.799Z,2.20
2019-01-03T03:20:50.762Z,4.30
2019-01-03T03:21:50.749Z,3.30
2019-01-03T03:22:50.777Z,2.90
2019-01-03T03:23:50.729Z,4.60
2019-01-03T03:24:50.718Z,3.00
2019-01-03T03:25:50.712Z,2.60
2019-01-03T03:26:50.717Z,3.80
2019-01-03T03:27:50.764Z,2.70
2019-01-03T03:28:50.691Z,2.50
2019-01-03T03:29:50.668Z,4.60
2019-01-03T03:30:50.657Z,3.10
2019-01-03T03:31:50.645Z,3.20
2019-01-03T03:32:50.660Z,3.20
2019-01-03T03:33:50.637Z,3.40
2019-01-03T03:34:50.613Z,5.00
2019-01-03T03:35:50.646Z,2.20
2019-01-03T03:36:50.631Z,2.10
2019-01-03T03:37:50.578Z,1.70
2019-01-03T03:38:50.574Z,3.20
2019-01-03T03:39:50.577Z,4.60
2019-01-03T03:40:50.553Z,4.30
2019-01-03T03:41:50.574Z,2.30
2019-01-03T03:42:50.528Z,3.10
2019-01-03T03:43:50.539Z,4.60
2019-01-03T03:44:50.530Z,2.70
2019-01-03T03:45:50.522Z,2.60
2019-01-03T03:46:50.481Z,5.90
2019-01-03T03:47:50.476Z,3.60
2019-01-03T03:48:50.516Z,4.00
2019-01-03T03:49:50.464Z,3.20
2019-01-03T03:50:50.469Z,5.40
2019-01-03T03:51:50.438Z,3.60
2019-01-03T03:52:50.418Z,4.80
2019-01-03T03:53:50.406Z,4.90
2019-01-03T03:54:50.413Z,2.30
2019-01-03T03:55:50.409Z,2.10
2019-01-03T03:56:50.373Z,5.00
2019-01-03T03:57:50.363Z,4.80
2019-01-03T03:58:50.354Z,5.60
2019-01-03T03:59:50.368Z,3.60
2019-01-03T04:00:50.357Z,4.10
2019-01-03T04:01:50.343Z,2.40
2019-01-03T04:02:50.330Z,6.00
2019-01-03T04:03:50.299Z,4.70
2019-01-03T04:04:50.288Z,4.70
2019-01-03T04:05:50.276Z,3.50
2019-01-03T04:06:50.316Z,3.00
2019-01-03T04:07:50.254Z,2.60
2019-01-03T04:08:50.280Z,3.30
2019-01-03T04:09:50.239Z,4.40
2019-01-03T04:10:50.227Z,4.10
2019-01-03T04:11:50.246Z,2.90
2019-01-03T04:12:50.252Z,6.70
2019-01-03T04:13:50.200Z,3.70
2019-01-03T04:14:50.182Z,3.40
2019-01-03T04:15:50.174Z,4.50
2019-01-03T04:16:50.170Z,2.70
2019-01-03T04:17:50.165Z,2.50
2019-01-03T04:18:50.154Z,4.10
2019-01-03T04:19:50.164Z,3.40
2019-01-03T04:20:50.119Z,5.10
2019-01-03T04:21:50.105Z,3.00
2019-01-03T04:22:50.122Z,1.70
2019-01-03T04:23:50.094Z,3.50
2019-01-03T04:24:50.127Z,3.90
2019-01-03T04:25:50.068Z,4.00
2019-01-03T04:26:50.052Z,3.00
2019-01-03T04:27:50.040Z,4.10
2019-01-03T04:28:50.034Z,4.80
2019-01-03T04:29:50.058Z,2.60
2019-01-03T04:30:50.029Z,4.30
2019-01-03T04:31:49.995Z,3.60
2019-01-03T04:32:49.984Z,3.40
2019-01-03T04:33:49.974Z,1.90
2019-01-03T04:34:49.989Z,1.60
2019-01-03T04:35:49.960Z,2.80
2019-01-03T04:36:49.950Z,5.00
2019-01-03T04:37:49.966Z,2.50
2019-01-03T04:38:49.922Z,2.90
2019-01-03T04:39:49.911Z,3.40
2019-01-03T04:40:49.931Z,2.60
2019-01-03T04:41:49.891Z,2.50
2019-01-03T04:42:49.889Z,2.80
2019-01-03T04:43:49.898Z,3.40
2019-01-03T04:44:49.865Z,1.80
2019-01-03T04:45:49.857Z,2.20
2019-01-03T04:46:50.010Z,2.30
2019-01-03T04:47:49.875Z,3.00
2019-01-03T04:48:49.854Z,3.20
2019-01-03T04:49:49.806Z,5.10
2019-01-03T04:50:49.820Z,2.90
2019-01-03T04:51:49.782Z,3.00
2019-01-03T04:52:49.808Z,4.30
2019-01-03T04:53:49.759Z,2.40
2019-01-03T04:54:49.763Z,2.80
2019-01-03T04:55:49.846Z,2.80
2019-01-03T04:56:49.761Z,2.50
2019-01-03T04:57:49.721Z,3.30
2019-01-03T04:58:49.709Z,6.50
2019-01-03T04:59:49.734Z,3.30
2019-01-03T05:00:49.691Z,3.90
2019-01-03T05:01:49.705Z,3.70
2019-01-03T05:02:49.685Z,6.30
2019-01-03T05:03:49.652Z,5.10
2019-01-03T05:04:49.653Z,3.60
2019-01-03T05:05:49.659Z,2.80
2019-01-03T05:06:49.629Z,4.50
2019-01-03T05:07:49.611Z,5.30
2019-01-03T05:08:49.625Z,3.70
2019-01-03T05:09:49.592Z,4.10
2019-01-03T05:10:49.594Z,2.70
2019-01-03T05:11:49.601Z,4.70
2019-01-03T05:12:49.664Z,3.40
2019-01-03T05:13:49.555Z,3.10
2019-01-03T05:14:49.559Z,2.20
2019-01-03T05:15:49.610Z,3.10
2019-01-03T05:16:49.541Z,4.60
2019-01-03T05:17:49.536Z,3.70
2019-01-03T05:18:49.492Z,6.50
2019-01-03T05:19:49.482Z,4.10
2019-01-03T05:20:49.472Z,4.20
2019-01-03T05:21:49.483Z,4.10
2019-01-03T05:22:49.485Z,2.80
2019-01-03T05:23:49.467Z,2.10
2019-01-03T05:24:49.435Z,3.30
2019-01-03T05:25:49.418Z,2.90
2019-01-03T05:26:49.404Z,4.50
2019-01-03T05:27:49.458Z,3.30
2019-01-03T05:28:49.383Z,5.20
2019-01-03T05:29:49.484Z,4.90
2019-01-03T05:30:49.369Z,3.50
2019-01-03T05:31:49.389Z,2.50
2019-01-03T05:32:49.337Z,5.60
2019-01-03T05:33:49.359Z,8.60
2019-01-03T05:34:49.322Z,2.70
2019-01-03T05:35:49.334Z,3.00
2019-01-03T05:36:49.303Z,3.10
2019-01-03T05:37:49.311Z,2.50
2019-01-03T05:38:49.280Z,4.60
2019-01-03T05:39:49.264Z,3.90
2019-01-03T05:40:49.259Z,6.90
2019-01-03T05:41:49.257Z,5.20
2019-01-03T05:42:49.253Z,5.70
2019-01-03T05:43:49.224Z,4.40
2019-01-03T05:44:49.213Z,3.50
2019-01-03T05:45:49.223Z,4.90
2019-01-03T05:46:49.189Z,4.00
2019-01-03T05:47:49.216Z,6.10
2019-01-03T05:48:49.167Z,4.50
2019-01-03T05:49:49.156Z,4.10
2019-01-03T05:50:49.159Z,5.20
2019-01-03T05:51:49.133Z,2.90
2019-01-03T05:52:49.122Z,3.20
2019-01-03T05:53:49.153Z,4.60
2019-01-03T05:54:49.139Z,3.10
2019-01-03T05:55:49.108Z,2.70
2019-01-03T05:56:49.079Z,3.40
2019-01-03T05:57:49.068Z,3.90
2019-01-03T05:58:49.067Z,3.70
2019-01-03T05:59:49.075Z,4.20
2019-01-03T06:00:49.044Z,5.80
2019-01-03T06:01:49.027Z,6.30
2019-01-03T06:02:49.087Z,3.80
2019-01-03T06:03:49.009Z,2.80
2019-01-03T06:04:48.993Z,3.90
2019-01-03T06:05:49.002Z,3.00
2019-01-03T06:06:48.977Z,4.90
2019-01-03T06:07:48.984Z,3.00
2019-01-03T06:08:48.962Z,5.70
2019-01-03T06:09:48.949Z,4.00
2019-01-03T06:10:48.943Z,2.50
2019-01-03T06:11:48.933Z,5.00
2019-01-03T06:12:48.935Z,2.60
2019-01-03T06:13:48.919Z,5.30
2019-01-03T06:14:48.887Z,3.60
2019-01-03T06:15:48.892Z,3.60
2019-01-03T06:16:48.862Z,4.00
2019-01-03T06:17:48.876Z,3.40
2019-01-03T06:18:48.844Z,3.00
2019-01-03T06:19:48.865Z,3.10
2019-01-03T06:20:48.863Z,5.20
2019-01-03T06:21:48.810Z,3.10
2019-01-03T06:22:48.815Z,2.70
2019-01-03T06:23:48.792Z,3.60
2019-01-03T06:24:48.800Z,8.50
2019-01-03T06:25:48.795Z,3.70
2019-01-03T06:26:48.763Z,4.30
2019-01-03T06:27:48.758Z,3.70
2019-01-03T06:28:48.739Z,4.60
2019-01-03T06:29:48.746Z,5.40
2019-01-03T06:30:48.715Z,3.90
2019-01-03T06:31:48.703Z,4.20
2019-01-03T06:32:48.713Z,3.10
2019-01-03T06:33:48.705Z,3.90
2019-01-03T06:34:48.676Z,6.10
2019-01-03T06:35:48.658Z,5.10
2019-01-03T06:36:48.659Z,3.50
2019-01-03T06:37:48.667Z,4.10
2019-01-03T06:38:48.663Z,6.00
2019-01-03T06:39:48.615Z,7.30
2019-01-03T06:40:48.605Z,3.50
2019-01-03T06:41:48.621Z,6.30
2019-01-03T06:42:48.607Z,4.20
2019-01-03T06:43:48.573Z,5.50
2019-01-03T06:44:48.564Z,4.00
2019-01-03T06:45:48.665Z,3.40
2019-01-03T06:46:48.577Z,5.50
2019-01-03T06:47:48.527Z,5.90
2019-01-03T06:48:48.531Z,5.60
2019-01-03T06:49:48.517Z,4.60
2019-01-03T06:50:48.508Z,2.60
2019-01-03T06:51:48.518Z,5.60
2019-01-03T06:52:48.491Z,5.80
2019-01-03T06:53:48.497Z,5.30
2019-01-03T06:54:48.494Z,7.00
2019-01-03T06:55:48.448Z,4.20
2019-01-03T06:56:48.462Z,4.70
2019-01-03T06:57:48.453Z,5.00
2019-01-03T06:58:48.411Z,4.30
2019-01-03T06:59:48.401Z,4.10
2019-01-03T07:00:48.424Z,7.60
2019-01-03T07:01:48.390Z,4.70
2019-01-03T07:02:48.391Z,3.90
2019-01-03T07:03:48.364Z,4.90
2019-01-03T07:04:48.361Z,6.30
2019-01-03T07:05:48.360Z,6.40
2019-01-03T07:06:48.335Z,4.50
2019-01-03T07:07:48.315Z,4.10
2019-01-03T07:08:48.313Z,4.70
2019-01-03T07:09:48.293Z,5.40
2019-01-03T07:10:48.296Z,6.60
2019-01-03T07:11:48.293Z,4.10
2019-01-03T07:12:48.261Z,4.70
2019-01-03T07:13:48.316Z,4.70
2019-01-03T07:14:48.275Z,5.30
2019-01-03T07:15:48.227Z,3.90
2019-01-03T07:16:48.215Z,4.60
2019-01-03T07:17:48.235Z,6.40
2019-01-03T07:18:48.197Z,5.00
2019-01-03T07:19:48.209Z,4.30
2019-01-03T07:20:48.211Z,5.50
2019-01-03T07:21:48.163Z,7.50
2019-01-03T07:22:48.205Z,4.40
2019-01-03T07:23:48.174Z,6.00
2019-01-03T07:24:48.136Z,4.80
2019-01-03T07:25:48.175Z,7.70
2019-01-03T07:26:48.125Z,4.30
2019-01-03T07:27:48.109Z,3.80
2019-01-03T07:28:48.091Z,5.20
2019-01-03T07:29:48.074Z,5.90
2019-01-03T07:30:48.095Z,5.60
2019-01-03T07:31:48.144Z,6.50
2019-01-03T07:32:48.057Z,4.60
2019-01-03T07:33:48.058Z,6.20
2019-01-03T07:34:48.038Z,7.30
2019-01-03T07:35:48.030Z,6.90
2019-01-03T07:36:48.069Z,5.50
2019-01-03T07:37:48.007Z,6.30
2019-01-03T07:38:48.009Z,5.40
2019-01-03T07:39:47.977Z,7.30
2019-01-03T07:40:47.984Z,6.30
2019-01-03T07:41:47.949Z,4.80
2019-01-03T07:42:47.950Z,5.70
2019-01-03T07:43:47.944Z,8.30
2019-01-03T07:44:47.944Z,5.40
2019-01-03T07:45:47.905Z,5.20
2019-01-03T07:46:47.892Z,5.60
2019-01-03T07:47:47.886Z,4.00
2019-01-03T07:48:47.878Z,6.70
2019-01-03T07:49:47.907Z,5.40
2019-01-03T07:50:47.881Z,6.00
2019-01-03T07:51:47.845Z,6.30
2019-01-03T07:52:47.849Z,5.60
2019-01-03T07:53:47.819Z,7.40
2019-01-03T07:54:47.815Z,8.00
2019-01-03T07:55:47.835Z,6.70
2019-01-03T07:56:47.879Z,7.10
2019-01-03T07:57:47.771Z,3.60
2019-01-03T07:58:47.763Z,4.50
2019-01-03T07:59:47.759Z,6.30
2019-01-03T08:00:47.767Z,4.30
2019-01-03T08:01:47.746Z,6.40
2019-01-03T08:02:47.733Z,7.50
2019-01-03T08:03:47.717Z,5.80
2019-01-03T08:04:47.737Z,8.50
2019-01-03T08:05:47.689Z,5.60
2019-01-03T08:06:47.696Z,5.70
2019-01-03T08:07:47.675Z,8.90
2019-01-03T08:08:47.653Z,5.90
2019-01-03T08:09:47.648Z,8.10
2019-01-03T08:10:47.656Z,5.70
2019-01-03T08:11:47.644Z,6.60
2019-01-03T08:12:47.610Z,6.90
2019-01-03T08:13:47.625Z,9.70
2019-01-03T08:14:47.647Z,10.10
2019-01-03T08:15:47.625Z,5.70
2019-01-03T08:16:47.574Z,6.50
2019-01-03T08:17:47.577Z,8.50
2019-01-03T08:18:47.553Z,7.00
2019-01-03T08:19:47.541Z,6.20
2019-01-03T08:20:47.557Z,5.70
2019-01-03T08:21:47.520Z,7.10
2019-01-03T08:22:47.528Z,9.70
2019-01-03T08:23:47.498Z,8.60
2019-01-03T08:24:47.486Z,6.10
2019-01-03T08:25:47.471Z,7.30
2019-01-03T08:26:47.461Z,5.50
2019-01-03T08:27:47.463Z,9.00
2019-01-03T08:28:47.443Z,8.00
2019-01-03T08:29:47.435Z,8.00
2019-01-03T08:30:47.465Z,6.70
2019-01-03T08:31:47.413Z,9.40
2019-01-03T08:32:47.425Z,7.90
2019-01-03T08:33:47.406Z,8.10
2019-01-03T08:34:47.381Z,9.20
2019-01-03T08:35:47.364Z,7.80
2019-01-03T08:36:47.369Z,10.10
2019-01-03T08:37:47.381Z,9.20
2019-01-03T08:38:47.337Z,9.30
2019-01-03T08:39:47.333Z,9.70
2019-01-03T08:40:47.316Z,10.00
2019-01-03T08:41:47.308Z,9.50
2019-01-03T08:42:47.313Z,7.10
2019-01-03T08:43:47.310Z,9.80
2019-01-03T08:44:47.266Z,8.50
2019-01-03T08:45:47.276Z,11.00
2019-01-03T08:46:47.276Z,8.00
2019-01-03T08:47:47.254Z,10.20
2019-01-03T08:48:47.224Z,8.10
2019-01-03T08:49:47.248Z,9.00
2019-01-03T08:50:47.204Z,7.60
2019-01-03T08:51:47.189Z,10.10
2019-01-03T08:52:47.187Z,8.20
2019-01-03T08:53:47.194Z,9.40
2019-01-03T08:54:47.170Z,8.70
2019-01-03T08:55:47.161Z,9.40
2019-01-03T08:56:47.144Z,8.90
2019-01-03T08:57:47.136Z,7.70
2019-01-03T08:58:47.164Z,9.00
2019-01-03T08:59:47.111Z,7.80
2019-01-03T09:00:47.088Z,9.80
2019-01-03T09:01:47.088Z,10.40
2019-01-03T09:02:47.093Z,8.10
2019-01-03T09:03:47.059Z,10.00
2019-01-03T09:04:47.055Z,9.60
2019-01-03T09:05:47.035Z,8.00
2019-01-03T09:06:47.059Z,9.60
2019-01-03T09:07:47.044Z,10.00
2019-01-03T09:08:47.008Z,10.40
2019-01-03T09:09:47.017Z,11.80
2019-01-03T09:10:47.010Z,10.60
2019-01-03T09:11:47.004Z,12.30
2019-01-03T09:12:46.962Z,15.80
2019-01-03T09:13:46.949Z,14.70
2019-01-03T09:14:46.940Z,12.20
2019-01-03T09:15:46.935Z,12.80
2019-01-03T09:16:46.947Z,11.90
2019-01-03T09:17:46.908Z,11.90
2019-01-03T09:18:46.898Z,11.40
2019-01-03T09:19:46.886Z,15.20
2019-01-03T09:20:46.871Z,10.70
2019-01-03T09:21:46.891Z,11.80
2019-01-03T09:22:46.850Z,13.60
2019-01-03T09:23:46.871Z,13.40
2019-01-03T09:24:46.846Z,12.50
2019-01-03T09:25:46.817Z,10.30
2019-01-03T09:26:46.805Z,11.70
2019-01-03T09:27:46.808Z,10.80
2019-01-03T09:28:46.808Z,10.70
2019-01-03T09:29:46.773Z,13.40
2019-01-03T09:30:46.769Z,11.10
2019-01-03T09:31:46.755Z,10.50
2019-01-03T09:32:46.743Z,12.60
2019-01-03T09:33:46.758Z,11.80
2019-01-03T09:34:46.717Z,12.20
2019-01-03T09:35:46.709Z,13.50
2019-01-03T09:36:46.705Z,12.10
2019-01-03T09:37:46.696Z,13.10
2019-01-03T09:38:46.716Z,11.40
2019-01-03T09:39:46.665Z,11.20
2019-01-03T09:40:46.651Z,11.50
2019-01-03T09:41:46.646Z,12.60
2019-01-03T09:42:46.638Z,9.30
2019-01-03T09:43:46.652Z,10.90
2019-01-03T09:44:46.640Z,12.80
2019-01-03T09:45:46.602Z,13.70
2019-01-03T09:46:46.625Z,13.00
2019-01-03T09:47:46.579Z,16.80
2019-01-03T09:48:46.595Z,11.90
2019-01-03T09:49:46.566Z,13.10
2019-01-03T09:50:46.574Z,13.80
2019-01-03T09:51:46.573Z,12.90
2019-01-03T09:52:46.523Z,13.30
2019-01-03T09:53:46.509Z,12.30
2019-01-03T09:54:46.507Z,13.00
2019-01-03T09:55:46.504Z,13.40
2019-01-03T09:56:46.504Z,11.90
2019-01-03T09:57:46.464Z,15.70
2019-01-03T09:58:46.476Z,13.30
2019-01-03T09:59:46.835Z,15.00
2019-01-03T10:00:46.436Z,14.90
2019-01-03T10:01:46.458Z,13.50
2019-01-03T10:02:46.419Z,14.30
2019-01-03T10:03:46.408Z,16.90
2019-01-03T10:04:46.390Z,15.00
2019-01-03T10:05:46.407Z,15.30
2019-01-03T10:06:46.371Z,16.50
2019-01-03T10:07:46.409Z,16.20
2019-01-03T10:08:46.348Z,15.30
2019-01-03T10:09:46.362Z,11.30
2019-01-03T10:10:46.328Z,12.40
2019-01-03T10:11:46.313Z,13.30
2019-01-03T10:12:46.309Z,14.70
2019-01-03T10:13:46.307Z,13.90
2019-01-03T10:14:46.307Z,12.20
2019-01-03T10:15:46.269Z,14.10
2019-01-03T10:16:46.263Z,14.20
2019-01-03T10:17:46.262Z,16.20
2019-01-03T10:18:46.245Z,13.70
2019-01-03T10:19:46.249Z,13.00
2019-01-03T10:20:46.225Z,17.50
2019-01-03T10:21:46.203Z,16.00
2019-01-03T10:22:46.202Z,14.50
2019-01-03T10:23:46.184Z,15.20
2019-01-03T10:24:46.205Z,15.10
2019-01-03T10:25:46.163Z,15.90
2019-01-03T10:26:46.200Z,15.90
2019-01-03T10:27:46.140Z,17.20
2019-01-03T10:28:46.161Z,14.60
2019-01-03T10:29:46.115Z,15.50
2019-01-03T10:30:46.114Z,11.90
2019-01-03T10:31:46.109Z,16.40
2019-01-03T10:32:46.085Z,16.30
2019-01-03T10:33:46.125Z,17.60
2019-01-03T10:34:46.062Z,15.00
2019-01-03T10:35:46.048Z,13.80
2019-01-03T10:36:46.065Z,14.50
2019-01-03T10:37:46.040Z,14.80
2019-01-03T10:38:46.021Z,17.50
2019-01-03T10:39:46.019Z,12.90
2019-01-03T10:40:46.042Z,12.90
2019-01-03T10:41:45.988Z,16.60
2019-01-03T10:42:46.024Z,14.20
2019-01-03T10:43:45.970Z,14.20
2019-01-03T10:44:45.977Z,16.60
2019-01-03T10:45:45.942Z,14.70
2019-01-03T10:46:45.937Z,12.40
2019-01-03T10:47:45.940Z,13.10
2019-01-03T10:48:45.951Z,14.80
2019-01-03T10:49:45.900Z,14.20
2019-01-03T10:50:45.892Z,14.10
2019-01-03T10:51:45.876Z,16.70
2019-01-03T10:52:45.865Z,14.20
2019-01-03T10:53:45.877Z,13.80
2019-01-03T10:54:45.881Z,13.60
2019-01-03T10:55:45.852Z,15.70
2019-01-03T10:56:45.824Z,14.80
2019-01-03T10:57:45.809Z,15.90
2019-01-03T10:58:45.829Z,13.50
2019-01-03T10:59:45.792Z,15.20
2019-01-03T11:00:45.807Z,17.60
2019-01-03T11:01:45.763Z,13.60
2019-01-03T11:02:45.781Z,12.20
2019-01-03T11:03:45.747Z,18.80
2019-01-03T11:04:45.733Z,13.80
2019-01-03T11:05:45.720Z,11.90
2019-01-03T11:06:45.727Z,15.90
2019-01-03T11:07:45.728Z,12.50
2019-01-03T11:08:45.691Z,14.50
2019-01-03T11:09:45.680Z,15.20
2019-01-03T11:10:45.665Z,14.40
2019-01-03T11:11:45.655Z,12.20
2019-01-03T11:12:45.685Z,13.60
2019-01-03T11:13:45.637Z,15.30
2019-01-03T11:14:45.628Z,12.50
2019-01-03T11:15:45.609Z,13.40
2019-01-03T11:16:45.602Z,13.00
2019-01-03T11:17:45.611Z,15.00
2019-01-03T11:18:45.618Z,15.30
2019-01-03T11:19:45.574Z,11.30
2019-01-03T11:20:45.554Z,15.60
2019-01-03T11:21:45.546Z,11.70
2019-01-03T11:22:45.556Z,11.00
2019-01-03T11:23:45.523Z,12.20
2019-01-03T11:24:45.511Z,11.80
2019-01-03T11:25:45.517Z,15.40
2019-01-03T11:26:45.494Z,15.70
2019-01-03T11:27:45.495Z,15.50
2019-01-03T11:28:45.501Z,13.80
2019-01-03T11:29:45.460Z,12.80
2019-01-03T11:30:45.444Z,13.20
2019-01-03T11:31:45.450Z,12.50
2019-01-03T11:32:45.425Z,12.70
2019-01-03T11:33:45.439Z,11.90
2019-01-03T11:34:45.405Z,14.30
2019-01-03T11:35:45.389Z,11.20
2019-01-03T11:36:45.381Z,12.90
2019-01-03T11:37:45.402Z,14.00
2019-01-03T11:38:45.376Z,14.20
2019-01-03T11:39:45.375Z,12.90
2019-01-03T11:40:45.335Z,13.70
2019-01-03T11:41:45.324Z,12.50
2019-01-03T11:42:45.316Z,14.10
2019-01-03T11:43:45.335Z,12.80
2019-01-03T11:44:45.299Z,12.50
2019-01-03T11:45:45.277Z,12.30
2019-01-03T11:46:45.268Z,13.40
2019-01-03T11:47:45.275Z,11.40
2019-01-03T11:48:45.249Z,15.20
2019-01-03T11:49:45.235Z,10.50
2019-01-03T11:50:45.230Z,14.00
2019-01-03T11:51:45.225Z,13.90
2019-01-03T11:52:45.224Z,16.90
2019-01-03T11:53:45.195Z,14.90
2019-01-03T11:54:45.179Z,11.80
2019-01-03T11:55:45.189Z,12.70
2019-01-03T11:56:45.174Z,9.30
2019-01-03T11:57:45.161Z,10.70
2019-01-03T11:58:45.169Z,10.60
2019-01-03T11:59:45.123Z,12.50
2019-01-03T12:00:45.135Z,11.80
2019-01-03T12:01:45.103Z,10.50
2019-01-03T12:02:45.128Z,9.70
2019-01-03T12:03:45.087Z,10.30
2019-01-03T12:04:45.068Z,9.60
2019-01-03T12:05:45.068Z,10.50
2019-01-03T12:06:45.051Z,9.70
2019-01-03T12:07:45.055Z,11.40
2019-01-03T12:08:45.054Z,9.70
2019-01-03T12:09:45.016Z,8.40
2019-01-03T12:10:45.015Z,9.40
2019-01-03T12:11:44.996Z,10.30
2019-01-03T12:12:44.981Z,9.30
2019-01-03T12:13:45.006Z,11.20
2019-01-03T12:14:44.963Z,9.80
2019-01-03T12:15:44.947Z,8.40
2019-01-03T12:16:44.969Z,10.70
2019-01-03T12:17:44.955Z,11.60
2019-01-03T12:18:44.919Z,10.90
2019-01-03T12:19:44.918Z,9.80
2019-01-03T12:20:44.953Z,8.20
2019-01-03T12:21:45.548Z,9.90
2019-01-03T12:22:44.900Z,10.20
2019-01-03T12:23:44.874Z,9.70
2019-01-03T12:24:44.850Z,8.60
2019-01-03T12:25:44.873Z,7.60
2019-01-03T12:26:44.836Z,9.30
2019-01-03T12:27:44.817Z,8.30
2019-01-03T12:28:44.846Z,6.90
2019-01-03T12:29:44.801Z,7.30
2019-01-03T12:30:44.833Z,11.10
2019-01-03T12:31:44.769Z,8.80
2019-01-03T12:32:44.769Z,8.30
2019-01-03T12:33:44.751Z,7.80
2019-01-03T12:34:44.742Z,9.80
2019-01-03T12:35:44.793Z,6.50
2019-01-03T12:36:44.718Z,10.60
2019-01-03T12:37:44.750Z,12.40
2019-01-03T12:38:44.723Z,7.60
2019-01-03T12:39:44.834Z,10.10
2019-01-03T12:40:44.719Z,9.00
2019-01-03T12:41:44.660Z,7.50
2019-01-03T12:42:44.652Z,6.50
2019-01-03T12:43:44.680Z,5.80
2019-01-03T12:44:44.653Z,9.60
2019-01-03T12:45:44.639Z,7.10
2019-01-03T12:46:44.668Z,7.80
2019-01-03T12:47:44.628Z,9.10
2019-01-03T12:48:45.567Z,8.70
2019-01-03T12:49:44.571Z,8.30
2019-01-03T12:50:44.584Z,11.30
2019-01-03T12:51:44.595Z,8.10
2019-01-03T12:52:44.550Z,10.80
2019-01-03T12:53:44.575Z,9.80
2019-01-03T12:54:44.557Z,8.20
2019-01-03T12:55:44.526Z,8.50
2019-01-03T12:56:44.551Z,13.50
2019-01-03T12:57:44.498Z,9.00
2019-01-03T12:58:44.501Z,11.50
2019-01-03T12:59:44.464Z,10.10
2019-01-03T13:00:44.476Z,9.70
2019-01-03T13:01:44.456Z,9.10
2019-01-03T13:02:44.453Z,10.50
2019-01-03T13:03:44.438Z,8.90
2019-01-03T13:04:44.406Z,15.10
2019-01-03T13:05:44.450Z,10.30
2019-01-03T13:06:44.412Z,13.00
2019-01-03T13:07:44.374Z,10.00
2019-01-03T13:08:44.369Z,9.20
2019-01-03T13:09:44.385Z,7.20
2019-01-03T13:10:44.340Z,9.40
2019-01-03T13:11:44.327Z,12.60